Time;durP1;ratioP1;P1;durP2;ratioP2;P2;SDS_P1;SDS_P2;PMS_P1;PMS_P2;Temp;Humidity;BMP_temperature;BMP_pressure;BME280_temperature;BME280_humidity;BME280_pressure;Samples;Min_cycle;Max_cycle;Signal;HPM_P1;HPM_P2
2022/09/29 00:00:13;;;;;;;18.77;5.45;;;;;;;18.43;97.73;99740.84;10416937;28;20559;-72
2022/09/29 00:05:14;;;;;;;21.08;5.25;;;;;;;18.28;97.84;99711.72;10416622;28;20103;-72
2022/09/29 00:10:14;;;;;;;14.02;5.15;;;;;;;17.87;98.36;99661.56;10417214;28;20049;-73
2022/09/29 00:15:16;;;;;;;15.93;5.40;;;;;;;17.84;98.63;99667.41;10417110;28;20069;-72
2022/09/29 00:20:17;;;;;;;18.83;5.43;;;;;;;18.26;99.19;99751.44;10416311;28;20585;-72
2022/09/29 00:25:18;;;;;;;12.40;5.20;;;;;;;17.80;99.66;99688.53;10416535;28;20128;-72
2022/09/29 00:30:19;;;;;;;13.23;4.90;;;;;;;18.22;99.84;99761.84;10416850;28;20080;-73
2022/09/29 00:35:20;;;;;;;12.40;5.30;;;;;;;18.01;100.00;99738.22;10417175;28;20052;-72
2022/09/29 00:40:20;;;;;;;18.83;5.40;;;;;;;18.08;100.00;99749.69;10416379;28;20371;-72
2022/09/29 00:45:23;;;;;;;15.27;6.00;;;;;;;17.68;100.00;99685.81;10415744;28;20084;-72
2022/09/29 00:50:47;;;;;;;12.93;5.57;;;;;;;18.18;100.00;99768.72;10414736;28;20128;-72
2022/09/29 00:56:04;;;;;;;12.35;5.55;;;;;;;18.13;100.00;99778.56;10415337;28;20041;-72
2022/09/29 01:01:05;;;;;;;16.50;6.30;;;;;;;17.83;100.00;99741.81;10414776;28;20045;-72
2022/09/29 01:06:22;;;;;;;14.23;5.03;;;;;;;17.98;100.00;99768.25;10415055;28;20038;-73
2022/09/29 01:11:23;;;;;;;22.02;6.50;;;;;;;18.00;100.00;99776.88;10414803;28;20133;-72
2022/09/29 01:16:24;;;;;;;15.15;5.40;;;;;;;17.81;100.00;99761.91;10415590;28;20442;-72
2022/09/29 01:21:49;;;;;;;11.18;5.50;;;;;;;17.86;100.00;99776.28;10413947;28;20079;-72
2022/09/29 01:27:24;;;;;;;19.63;7.30;;;;;;;17.72;100.00;99770.25;10414484;28;20033;-72
2022/09/29 01:32:36;;;;;;;22.00;7.80;;;;;;;17.70;100.00;99788.44;10413577;28;20045;-72
2022/09/29 01:38:15;;;;;;;21.13;6.53;;;;;;;17.90;100.00;99817.75;10414051;28;20045;-73
2022/09/29 01:43:22;;;;;;;19.90;7.20;;;;;;;17.92;100.00;99825.56;10413731;28;20396;-72
2022/09/29 01:48:28;;;;;;;19.95;7.32;;;;;;;17.95;100.00;99833.22;10412980;28;20033;-72
2022/09/29 01:53:39;;;;;;;17.40;7.63;;;;;;;17.57;100.00;99767.97;10412692;28;20148;-73
2022/09/29 01:58:52;;;;;;;15.85;7.25;;;;;;;17.98;100.00;99824.69;10411821;28;20053;-73
2022/09/29 02:04:03;;;;;;;16.23;7.03;;;;;;;17.92;100.00;99817.50;10413697;28;20063;-72
2022/09/29 02:09:11;;;;;;;19.35;7.00;;;;;;;17.62;100.00;99787.94;10413697;28;20073;-72
2022/09/29 02:14:18;;;;;;;21.75;6.65;;;;;;;17.69;100.00;99808.31;10412338;28;20520;-72
2022/09/29 02:19:24;;;;;;;23.33;6.53;;;;;;;17.71;100.00;99818.81;10412955;28;20092;-72
2022/09/29 02:24:25;;;;;;;18.10;5.90;;;;;;;17.78;100.00;99841.06;10412913;28;20517;-72
2022/09/29 02:29:26;;;;;;;21.27;5.90;;;;;;;17.63;100.00;99838.75;10412175;28;20045;-72
2022/09/29 02:34:31;;;;;;;18.25;5.93;;;;;;;17.57;100.00;99824.38;10407356;28;20038;-73
2022/09/29 02:40:06;;;;;;;19.08;6.78;;;;;;;17.84;100.00;99860.84;10397219;28;20046;-72
2022/09/29 02:45:18;;;;;;;16.80;6.10;;;;;;;17.78;100.00;99844.56;10371714;28;20042;-72
2022/09/29 02:50:48;;;;;;;18.92;6.18;;;;;;;17.82;100.00;99850.31;10371023;28;20494;-72
2022/09/29 02:56:07;;;;;;;21.40;6.53;;;;;;;17.82;100.00;99874.50;10371502;28;20133;-72
2022/09/29 03:01:08;;;;;;;42.88;7.43;;;;;;;17.85;100.00;99873.22;10373939;28;20057;-72
2022/09/29 03:06:11;;;;;;;19.65;6.53;;;;;;;17.69;100.00;99864.72;10380152;28;20108;-72
2022/09/29 03:11:11;;;;;;;29.17;7.40;;;;;;;17.50;100.00;99839.75;10410667;28;20048;-73
2022/09/29 03:16:12;;;;;;;41.50;7.57;;;;;;;17.87;100.00;99912.25;10413454;28;20049;-72
2022/09/29 03:21:13;;;;;;;52.65;8.80;;;;;;;17.82;100.00;99913.97;10417592;28;20408;-72
2022/09/29 03:26:14;;;;;;;17.55;6.68;;;;;;;17.28;100.00;99830.50;10418506;28;20052;-72
2022/09/29 03:31:15;;;;;;;23.48;8.05;;;;;;;17.78;100.00;99916.31;10419159;28;20049;-72
2022/09/29 03:36:16;;;;;;;22.40;6.43;;;;;;;17.79;100.00;99918.75;10418527;28;20080;-72
2022/09/29 03:41:16;;;;;;;17.33;5.57;;;;;;;17.83;100.00;99942.47;10404561;28;20076;-72
2022/09/29 03:46:17;;;;;;;20.67;6.72;;;;;;;17.52;100.00;99895.91;10377064;28;20045;-72
2022/09/29 03:51:18;;;;;;;42.35;8.07;;;;;;;17.87;100.00;99946.38;10377345;28;20506;-73
2022/09/29 03:56:19;;;;;;;49.90;8.68;;;;;;;17.86;100.00;99939.34;10370296;28;20107;-73
2022/09/29 04:01:20;;;;;;;28.88;7.90;;;;;;;17.74;100.00;99915.91;10413802;28;20037;-72
2022/09/29 04:06:21;;;;;;;14.75;6.20;;;;;;;18.12;100.00;100005.38;10390723;28;20630;-72
2022/09/29 04:11:21;;;;;;;15.68;6.18;;;;;;;17.88;100.00;99964.13;10384591;28;20069;-71
2022/09/29 04:16:22;;;;;;;17.23;5.43;;;;;;;18.23;100.00;100016.22;10401465;28;20041;-72
2022/09/29 04:21:23;;;;;;;18.95;5.80;;;;;;;18.12;100.00;100000.81;10377077;28;20490;-72
2022/09/29 04:26:24;;;;;;;26.77;6.55;;;;;;;18.43;100.00;100025.91;10382828;28;20498;-72
2022/09/29 04:31:25;;;;;;;13.73;6.13;;;;;;;18.03;100.00;99957.31;10374588;28;20046;-72
2022/09/29 04:36:26;;;;;;;17.67;6.60;;;;;;;18.81;100.00;100041.72;10380434;28;20518;-72
2022/09/29 04:41:27;;;;;;;11.55;5.70;;;;;;;18.65;100.00;99975.91;10377683;28;20046;-71
2022/09/29 04:46:28;;;;;;;20.15;5.80;;;;;;;19.15;100.00;100040.19;10374975;28;20125;-70
2022/09/29 04:51:29;;;;;;;12.07;5.20;;;;;;;19.26;100.00;100045.81;10374639;28;20058;-71
2022/09/29 04:56:30;;;;;;;14.23;5.60;;;;;;;18.87;99.86;99961.94;10374570;28;20521;-72
2022/09/29 05:01:31;;;;;;;12.63;5.72;;;;;;;19.36;98.91;100019.94;10373835;28;20061;-72
2022/09/29 05:06:32;;;;;;;9.75;5.07;;;;;;;19.52;97.78;100039.97;10374365;28;20044;-72
2022/09/29 05:11:34;;;;;;;11.07;4.80;;;;;;;19.28;96.02;100008.69;10373431;28;20099;-72
2022/09/29 05:16:34;;;;;;;13.48;5.00;;;;;;;19.08;95.46;99971.31;10373916;28;20052;-73
2022/09/29 05:21:35;;;;;;;10.52;4.80;;;;;;;19.02;95.12;99958.81;10374031;28;20044;-72
2022/09/29 05:26:36;;;;;;;14.13;5.07;;;;;;;19.48;95.90;100035.31;10372998;28;20096;-73
2022/09/29 05:31:37;;;;;;;8.38;4.43;;;;;;;18.97;96.95;99989.13;10373673;28;20136;-72
2022/09/29 05:36:38;;;;;;;13.00;5.07;;;;;;;18.63;98.86;99944.91;10373174;28;20041;-72
2022/09/29 05:41:38;;;;;;;14.20;6.93;;;;;;;18.29;100.00;99944.56;10371914;28;20042;-71
2022/09/29 05:46:40;;;;;;;10.25;5.38;;;;;;;18.63;100.00;100031.81;10372839;28;20042;-72
2022/09/29 05:51:40;;;;;;;10.70;5.47;;;;;;;18.69;100.00;100048.91;10372217;28;20534;-72
2022/09/29 05:56:41;;;;;;;10.85;5.32;;;;;;;18.74;100.00;100062.53;10372095;28;20048;-73
2022/09/29 06:01:42;;;;;;;14.80;4.55;;;;;;;18.82;100.00;100048.78;10381063;28;20034;-71
2022/09/29 06:06:43;;;;;;;7.47;4.47;;;;;;;19.17;100.00;100074.94;10412143;28;20413;-72
2022/09/29 06:11:44;;;;;;;12.20;4.85;;;;;;;19.45;100.00;100086.94;10411105;28;20124;-72
2022/09/29 06:16:45;;;;;;;9.43;4.85;;;;;;;19.24;100.00;100016.44;10412500;28;20136;-72
2022/09/29 06:21:45;;;;;;;7.60;4.60;;;;;;;19.88;100.00;100085.81;10412767;28;20418;-72
2022/09/29 06:26:46;;;;;;;9.10;4.03;;;;;;;19.98;100.00;100050.97;10411534;28;20503;-72
2022/09/29 06:31:47;;;;;;;6.05;3.80;;;;;;;20.62;100.00;100123.81;10412607;28;20073;-72
2022/09/29 06:42:07;;;;;;;6.97;3.80;;;;;;;20.40;96.46;100062.41;10411965;28;20107;-72
2022/09/29 06:47:08;;;;;;;8.63;3.95;;;;;;;20.56;96.33;100081.59;10412322;28;20072;-72
2022/09/29 06:52:09;;;;;;;6.03;3.30;;;;;;;19.92;95.22;99971.06;10418319;28;20061;-73
2022/09/29 06:57:10;;;;;;;7.57;3.75;;;;;;;20.61;94.55;100089.78;10420591;28;20049;-71
2022/09/29 07:02:11;;;;;;;5.78;3.67;;;;;;;20.25;93.94;100010.81;10419668;28;20044;-71
2022/09/29 07:07:12;;;;;;;7.72;3.45;;;;;;;20.54;92.55;100040.53;10419585;28;20033;-72
2022/09/29 07:12:13;;;;;;;6.75;3.15;;;;;;;20.29;92.69;100004.72;10420363;28;20486;-71
2022/09/29 07:17:14;;;;;;;4.15;3.10;;;;;;;20.15;92.80;99979.06;10418730;28;20069;-71
2022/09/29 07:22:15;;;;;;;9.02;3.85;;;;;;;20.81;92.99;100106.38;10419128;28;20049;-71
2022/09/29 07:27:22;;;;;;;5.47;3.20;;;;;;;20.26;91.81;100017.88;10418692;28;20037;-71
2022/09/29 07:32:23;;;;;;;4.82;3.30;;;;;;;20.96;91.91;100120.16;10418734;28;20094;-71
2022/09/29 07:37:24;;;;;;;6.93;3.20;;;;;;;20.52;90.94;100052.41;10418858;28;20041;-71
2022/09/29 07:42:27;;;;;;;7.82;3.33;;;;;;;20.85;89.48;100061.66;10417734;28;20076;-71
2022/09/29 07:47:28;;;;;;;5.93;3.00;;;;;;;21.50;88.84;100137.88;10418347;28;20516;-71
2022/09/29 07:52:28;;;;;;;6.90;3.20;;;;;;;21.83;86.98;100118.94;10417357;28;20179;-72
2022/09/29 07:57:29;;;;;;;5.90;2.97;;;;;;;22.01;85.01;100090.78;10417559;28;20045;-71
2022/09/29 08:02:31;;;;;;;5.38;3.33;;;;;;;22.48;82.52;100103.88;10416766;28;20048;-71
2022/09/29 08:07:32;;;;;;;10.63;2.85;;;;;;;22.91;80.03;100096.75;10410445;28;20052;-72
2022/09/29 08:12:32;;;;;;;5.00;2.40;;;;;;;23.09;78.31;100092.09;10416714;28;20053;-72
2022/09/29 08:17:33;;;;;;;6.85;2.53;;;;;;;23.09;77.54;100095.59;10416658;28;20421;-73
2022/09/29 08:22:34;;;;;;;5.38;2.83;;;;;;;23.01;77.33;100090.69;10416232;28;20518;-71
2022/09/29 08:27:35;;;;;;;6.88;3.08;;;;;;;23.50;76.01;100108.72;10416581;28;20041;-73
2022/09/29 08:32:37;;;;;;;4.35;2.72;;;;;;;23.42;75.38;100088.31;10416291;28;20493;-71
2022/09/29 08:37:37;;;;;;;5.40;2.47;;;;;;;23.41;73.66;100073.13;10416320;28;20041;-72
2022/09/29 08:43:05;;;;;;;6.93;3.08;;;;;;;23.55;71.42;100106.84;10416154;28;20041;-73
2022/09/29 08:48:18;;;;;;;6.32;2.25;;;;;;;23.40;69.98;100123.00;10416026;28;20048;-72
2022/09/29 08:53:21;;;;;;;5.15;2.70;;;;;;;23.14;71.17;100101.09;10416231;28;20065;-69
2022/09/29 08:58:22;;;;;;;4.20;2.20;;;;;;;23.72;69.69;100100.47;10415038;28;20049;-70
2022/09/29 09:04:15;;;;;;;6.90;1.98;;;;;;;24.27;67.21;100101.91;10415328;28;20037;-73
2022/09/29 09:09:26;;;;;;;5.82;2.60;;;;;;;24.10;66.13;100015.25;10409277;28;20425;-71
2022/09/29 09:14:57;;;;;;;4.03;2.50;;;;;;;24.79;64.58;100098.28;10414033;28;20037;-71
2022/09/29 09:20:13;;;;;;;5.43;2.97;;;;;;;24.47;66.59;100091.16;10414118;28;20516;-71
2022/09/29 09:25:40;;;;;;;8.88;2.33;;;;;;;23.72;65.42;100030.78;10414415;28;20037;-72
2022/09/29 09:30:48;;;;;;;5.68;2.65;;;;;;;23.35;66.57;100020.75;10413303;28;20497;-71
2022/09/29 09:35:53;;;;;;;9.98;3.08;;;;;;;23.40;67.67;100049.81;10413558;28;20128;-72
2022/09/29 09:40:57;;;;;;;8.50;4.53;;;;;;;22.90;67.65;99980.56;10413878;28;20041;-72
2022/09/29 09:46:12;;;;;;;7.07;3.83;;;;;;;23.14;69.99;100043.38;10413969;28;20041;-74
2022/09/29 09:51:45;;;;;;;7.03;3.17;;;;;;;23.42;69.47;100077.47;10414279;28;20416;-73
2022/09/29 09:57:01;;;;;;;17.20;5.30;;;;;;;23.53;71.53;100076.47;10413113;28;20047;-72
2022/09/29 10:02:02;;;;;;;8.75;3.28;;;;;;;23.30;69.09;100065.97;10412781;28;20395;-71
2022/09/29 10:07:04;;;;;;;10.73;4.07;;;;;;;23.52;69.40;100080.28;10412591;28;20665;-71
2022/09/29 10:12:13;;;;;;;7.18;2.72;;;;;;;23.60;67.78;100087.09;10412042;28;20059;-71
2022/09/29 10:17:17;;;;;;;4.88;2.80;;;;;;;23.58;68.26;100079.22;10413062;28;20711;-72
2022/09/29 10:22:18;;;;;;;;;;;;;;;24.03;67.91;100079.81;10413409;28;20042;-71
2022/09/29 10:27:24;;;;;;;8.50;3.58;;;;;;;23.85;67.25;100057.47;10418351;28;20024;-71
2022/09/29 10:32:35;;;;;;;18.45;3.88;;;;;;;24.46;66.06;100084.06;10421251;28;20053;-72
2022/09/29 10:37:39;;;;;;;5.75;2.83;;;;;;;24.74;64.19;100073.81;10421060;28;20076;-72
2022/09/29 10:42:49;;;;;;;8.10;3.10;;;;;;;24.95;62.23;100072.81;10420565;28;20048;-72
2022/09/29 10:47:56;;;;;;;4.75;2.45;;;;;;;24.79;62.39;100079.28;10420765;28;20045;-72
2022/09/29 10:52:59;;;;;;;9.27;3.20;;;;;;;24.44;63.50;100097.13;10420614;28;20393;-72
2022/09/29 10:58:05;;;;;;;;;;;;;;;24.62;64.16;100095.81;10420610;28;20049;-72
2022/09/29 11:03:27;;;;;;;6.65;2.72;;;;;;;23.83;63.92;100029.78;10419450;28;20034;-72
2022/09/29 11:08:29;;;;;;;7.75;3.20;;;;;;;24.32;64.99;100093.75;10420277;28;20539;-73
2022/09/29 11:13:39;;;;;;;8.20;3.20;;;;;;;24.39;63.93;100091.63;10419121;28;20051;-73
2022/09/29 11:18:42;;;;;;;10.77;2.70;;;;;;;24.92;63.17;100091.53;10418866;28;20401;-71
2022/09/29 11:24:10;;;;;;;21.92;3.45;;;;;;;24.95;60.11;100010.31;10418983;28;20045;-73
2022/09/29 11:30:05;;;;;;;21.52;3.40;;;;;;;25.41;59.91;100056.53;10419090;28;20045;-72
2022/09/29 11:35:17;;;;;;;8.15;2.65;;;;;;;25.35;61.21;100103.03;10413635;28;20041;-72
2022/09/29 11:40:40;;;;;;;6.03;2.90;;;;;;;25.12;60.60;100102.44;10417021;28;20049;-72
2022/09/29 11:45:50;;;;;;;5.32;2.40;;;;;;;24.78;59.71;100091.25;10418263;28;20053;-71
2022/09/29 11:50:58;;;;;;;4.00;2.05;;;;;;;24.30;61.10;100072.31;10417756;28;20082;-71
2022/09/29 11:56:08;;;;;;;3.17;1.90;;;;;;;24.54;60.96;100108.00;10417390;28;20049;-72
2022/09/29 12:01:21;;;;;;;8.32;2.13;;;;;;;24.85;59.75;100101.84;10417843;28;20041;-72
2022/09/29 12:06:32;;;;;;;4.07;1.98;;;;;;;25.09;59.44;100089.38;10417122;28;20041;-72
2022/09/29 12:11:33;;;;;;;5.22;1.70;;;;;;;24.68;59.49;100017.88;10417393;28;20394;-72
2022/09/29 12:16:38;;;;;;;10.85;2.40;;;;;;;25.01;59.57;100098.09;10416833;28;20124;-73
2022/09/29 12:21:46;;;;;;;7.35;1.98;;;;;;;24.60;59.21;100030.09;10416829;28;20183;-72
2022/09/29 12:26:49;;;;;;;4.07;2.00;;;;;;;24.93;59.03;100074.97;10406939;28;20044;-69
2022/09/29 12:31:53;;;;;;;9.13;1.80;;;;;;;25.00;59.37;100089.09;10385493;28;20045;-66
2022/09/29 12:37:04;;;;;;;2.63;1.50;;;;;;;25.08;57.62;100092.38;10389130;28;20048;-66
2022/09/29 12:42:14;;;;;;;4.53;1.40;;;;;;;25.13;57.73;100087.81;10404106;28;20037;-67
2022/09/29 12:47:24;;;;;;;4.35;1.80;;;;;;;24.76;58.29;100023.59;10392575;28;20099;-67
2022/09/29 12:52:33;;;;;;;5.80;2.33;;;;;;;25.16;57.48;100076.38;10415056;28;20143;-67
2022/09/29 12:57:41;;;;;;;3.85;1.50;;;;;;;25.10;55.67;100079.31;10399127;28;20080;-73
2022/09/29 13:03:01;;;;;;;3.47;1.45;;;;;;;25.26;55.45;100089.16;10399061;28;20045;-67
2022/09/29 13:08:31;;;;;;;4.47;1.70;;;;;;;25.22;55.14;100090.81;10379998;28;20041;-68
2022/09/29 13:13:34;;;;;;;9.57;1.80;;;;;;;25.16;56.08;100091.84;10384334;28;20064;-67
2022/09/29 13:19:02;;;;;;;3.15;1.40;;;;;;;25.16;55.75;100091.84;10386235;28;20485;-70
2022/09/29 13:24:29;;;;;;;4.57;1.48;;;;;;;25.06;55.65;100090.72;10379769;28;20108;-68
2022/09/29 13:29:32;;;;;;;3.08;1.30;;;;;;;24.84;56.42;100082.00;10381012;28;20084;-67
2022/09/29 13:34:36;;;;;;;5.22;1.45;;;;;;;24.71;56.68;100091.50;10390899;28;20513;-67
2022/09/29 13:39:41;;;;;;;4.32;1.65;;;;;;;24.62;57.35;100103.13;10389439;28;20125;-70
2022/09/29 13:44:42;;;;;;;5.00;1.70;;;;;;;24.04;57.12;100030.69;10386861;28;20041;-67
2022/09/29 13:49:43;;;;;;;6.45;2.25;;;;;;;23.53;58.27;99970.72;10411992;28;20429;-67
2022/09/29 13:54:44;;;;;;;18.17;6.63;;;;;;;23.98;58.38;100071.63;10410522;28;20465;-67
2022/09/29 13:59:54;;;;;;;6.00;2.40;;;;;;;23.74;57.62;100050.34;10371285;28;20038;-67
2022/09/29 14:04:56;;;;;;;41.35;10.95;;;;;;;23.98;58.66;100107.72;10377780;28;20049;-69
2022/09/29 14:10:04;;;;;;;27.73;5.68;;;;;;;23.90;58.07;100117.19;10382313;28;20049;-68
2022/09/29 14:15:08;;;;;;;29.35;6.50;;;;;;;23.72;62.05;100133.03;10395286;28;20057;-68
2022/09/29 14:20:24;;;;;;;18.48;4.43;;;;;;;23.47;62.86;100145.28;10398073;28;20069;-68
2022/09/29 14:25:53;;;;;;;85.43;9.60;;;;;;;23.18;66.49;100153.72;10392748;28;20046;-68
2022/09/29 14:30:56;;;;;;;58.05;5.78;;;;;;;22.72;65.93;100134.22;10398559;28;20402;-68
2022/09/29 14:35:59;;;;;;;36.22;5.10;;;;;;;22.64;67.26;100163.63;10412100;28;20039;-68
2022/09/29 14:41:03;;;;;;;17.70;3.28;;;;;;;22.32;68.50;100170.53;10401756;28;20045;-67
2022/09/29 14:52:02;;;;;;;22.02;3.58;;;;;;;21.34;70.95;100113.28;10387400;28;20053;-68
2022/09/29 14:57:09;;;;;;;69.35;7.32;;;;;;;21.64;73.78;100191.38;10379510;28;20037;-68
2022/09/29 15:02:10;;;;;;;75.85;8.00;;;;;;;21.40;74.15;100196.09;10382824;28;20050;-69
2022/09/29 15:07:23;;;;;;;40.88;6.15;;;;;;;20.34;78.14;100055.25;10375714;28;20093;-68
2022/09/29 15:12:27;;;;;;;75.15;8.27;;;;;;;20.84;77.84;100197.69;10373077;28;20138;-68
2022/09/29 15:17:47;;;;;;;57.58;7.43;;;;;;;20.35;80.36;100145.09;10378745;28;20037;-68
2022/09/29 15:23:26;;;;;;;21.83;6.03;;;;;;;20.53;79.95;100204.34;10377854;28;20049;-70
2022/09/29 15:28:44;;;;;;;33.53;6.22;;;;;;;20.34;79.06;100225.22;10376194;28;20041;-68
2022/09/29 15:33:46;;;;;;;24.48;6.05;;;;;;;20.10;80.50;100201.97;10376876;28;20641;-68
2022/09/29 15:38:52;;;;;;;47.28;7.10;;;;;;;19.94;83.52;100225.88;10380343;28;20041;-67
2022/09/29 15:44:02;;;;;;;35.10;7.28;;;;;;;19.28;85.63;100154.13;10404583;28;20046;-67
2022/09/29 15:49:14;;;;;;;29.48;7.38;;;;;;;19.63;87.11;100231.53;10377571;28;20050;-67
2022/09/29 15:54:15;;;;;;;24.15;6.88;;;;;;;19.44;84.69;100217.28;10382652;28;20061;-68
2022/09/29 15:59:19;;;;;;;25.52;7.72;;;;;;;19.38;87.17;100248.66;10388657;28;20038;-67
2022/09/29 16:04:20;;;;;;;26.13;7.10;;;;;;;19.16;85.89;100227.59;10388202;28;20045;-67
2022/09/29 16:09:21;;;;;;;27.75;8.10;;;;;;;19.03;86.83;100224.28;10377230;28;20037;-68
2022/09/29 16:14:26;;;;;;;28.10;7.90;;;;;;;19.13;88.91;100254.16;10384281;28;20041;-69
2022/09/29 16:19:30;;;;;;;29.55;7.35;;;;;;;19.01;89.29;100270.25;10392028;28;20061;-67
2022/09/29 16:24:35;;;;;;;27.73;7.97;;;;;;;18.87;90.33;100279.53;10389119;28;20501;-67
2022/09/29 16:29:36;;;;;;;30.05;7.53;;;;;;;18.26;89.67;100192.41;10386283;28;20057;-69
2022/09/29 16:34:37;;;;;;;22.85;7.65;;;;;;;18.68;89.64;100273.28;10382712;28;20060;-71
2022/09/29 16:39:44;;;;;;;27.10;9.25;;;;;;;18.56;91.73;100278.56;10379138;28;20048;-73
2022/09/29 16:44:45;;;;;;;19.95;7.80;;;;;;;18.09;90.47;100215.50;10385421;28;20034;-72
2022/09/29 16:49:52;;;;;;;29.58;8.65;;;;;;;17.93;91.19;100209.66;10385462;28;20053;-72
2022/09/29 16:55:17;;;;;;;20.70;7.25;;;;;;;18.00;94.18;100236.47;10384766;28;20128;-72
2022/09/29 17:00:17;;;;;;;16.90;7.47;;;;;;;18.20;92.18;100285.53;10385203;28;20049;-72
2022/09/29 17:05:20;;;;;;;23.08;8.65;;;;;;;18.06;92.89;100278.59;10387123;28;20060;-71
2022/09/29 17:10:21;;;;;;;32.65;8.60;;;;;;;18.11;93.18;100291.41;10379815;28;20034;-71
2022/09/29 17:15:24;;;;;;;25.73;8.48;;;;;;;17.89;93.63;100272.09;10392366;28;20048;-71
2022/09/29 17:20:28;;;;;;;22.23;8.13;;;;;;;17.94;94.05;100304.53;10391284;28;20042;-71
2022/09/29 17:25:29;;;;;;;15.77;5.88;;;;;;;17.63;95.06;100284.66;10390874;28;20052;-71
2022/09/29 17:30:30;;;;;;;15.68;5.00;;;;;;;17.49;95.67;100275.84;10391164;28;20092;-71
2022/09/29 17:35:37;;;;;;;14.23;4.90;;;;;;;17.61;98.35;100302.03;10391103;28;20049;-72
2022/09/29 17:40:51;;;;;;;51.15;6.40;;;;;;;16.91;98.37;100184.66;10404864;28;20080;-72
2022/09/29 17:45:55;;;;;;;26.23;5.88;;;;;;;17.51;97.04;100291.75;10413203;28;20041;-72
2022/09/29 17:50:58;;;;;;;43.05;8.40;;;;;;;17.33;96.09;100260.22;10404053;28;20053;-74
2022/09/29 17:55:58;;;;;;;22.30;6.95;;;;;;;17.15;95.78;100223.34;10389971;28;20042;-72
2022/09/29 18:00:59;;;;;;;16.02;6.32;;;;;;;17.87;95.97;100333.31;10390765;28;20050;-72
2022/09/29 18:06:00;;;;;;;23.27;6.55;;;;;;;17.87;95.77;100322.56;10397960;28;20038;-73
2022/09/29 18:11:01;;;;;;;22.15;5.78;;;;;;;17.93;95.91;100327.91;10381796;28;20045;-72
2022/09/29 18:16:02;;;;;;;24.08;11.07;;;;;;;17.96;95.98;100340.09;10385491;28;20044;-71
2022/09/29 18:21:05;;;;;;;40.45;17.15;;;;;;;17.89;96.60;100326.69;10409214;28;20069;-72
2022/09/29 18:26:06;;;;;;;15.43;6.07;;;;;;;18.03;95.56;100365.88;10410047;28;20503;-73
2022/09/29 18:31:27;;;;;;;16.70;6.50;;;;;;;18.23;95.02;100379.19;10388354;28;20419;-71
2022/09/29 18:36:28;;;;;;;26.40;8.23;;;;;;;18.38;92.72;100359.22;10408855;28;20498;-72
2022/09/29 18:41:28;;;;;;;14.43;7.68;;;;;;;18.43;92.12;100352.16;10412698;28;20041;-73
2022/09/29 18:46:29;;;;;;;15.25;7.90;;;;;;;18.04;92.09;100288.75;10414709;28;20497;-72
2022/09/29 18:51:30;;;;;;;41.85;8.73;;;;;;;18.55;92.25;100375.66;10420336;28;20827;-72
2022/09/29 18:56:31;;;;;;;28.35;6.90;;;;;;;18.32;92.19;100344.78;10420338;28;20195;-73
2022/09/29 19:01:32;;;;;;;19.05;6.40;;;;;;;18.60;92.42;100391.94;10420866;28;20046;-72
2022/09/29 19:06:33;;;;;;;11.63;5.90;;;;;;;18.70;92.41;100413.81;10400524;28;20038;-72
2022/09/29 19:11:34;;;;;;;13.15;7.55;;;;;;;18.24;91.88;100340.50;10396436;28;20049;-72
2022/09/29 19:16:35;;;;;;;30.25;7.80;;;;;;;18.67;92.26;100419.66;10415755;28;20034;-73
2022/09/29 19:21:35;;;;;;;22.13;8.48;;;;;;;18.01;92.55;100330.34;10384495;28;20501;-71
2022/09/29 19:26:36;;;;;;;11.30;6.72;;;;;;;18.47;92.77;100417.09;10402368;28;20041;-73
2022/09/29 19:31:37;;;;;;;42.83;8.35;;;;;;;17.91;93.07;100334.53;10402554;28;20540;-72
2022/09/29 19:36:38;;;;;;;13.63;5.97;;;;;;;18.44;93.54;100436.34;10381147;28;20500;-72
2022/09/29 19:41:39;;;;;;;23.08;6.93;;;;;;;18.28;94.09;100432.34;10377186;28;20501;-73
2022/09/29 19:46:40;;;;;;;12.25;6.55;;;;;;;18.17;94.73;100425.75;10377579;28;20121;-72
2022/09/29 19:51:51;;;;;;;16.85;7.68;;;;;;;18.06;95.32;100410.31;10376819;28;20061;-72
2022/09/29 19:57:01;;;;;;;8.93;5.82;;;;;;;17.65;97.39;100324.72;10375446;28;20081;-72
2022/09/29 20:02:05;;;;;;;12.70;6.40;;;;;;;18.48;96.12;100442.94;10376293;28;20072;-72
2022/09/29 20:07:06;;;;;;;9.05;5.68;;;;;;;18.58;95.33;100445.16;10375967;28;20046;-72
2022/09/29 20:12:07;;;;;;;10.00;6.32;;;;;;;18.68;95.39;100443.63;10376844;28;20046;-72
2022/09/29 20:17:08;;;;;;;10.75;6.90;;;;;;;18.78;95.20;100451.22;10376215;28;20140;-72
2022/09/29 20:22:09;;;;;;;12.30;6.45;;;;;;;18.82;95.49;100446.25;10376256;28;20048;-72
2022/09/29 20:27:10;;;;;;;19.05;6.50;;;;;;;18.78;95.80;100436.97;10375264;28;20120;-72
2022/09/29 20:32:10;;;;;;;17.92;8.23;;;;;;;18.85;96.06;100449.31;10385833;28;20383;-72
2022/09/29 20:37:13;;;;;;;31.95;11.52;;;;;;;18.83;96.17;100446.03;10375542;28;20391;-72
2022/09/29 20:42:15;;;;;;;35.10;10.52;;;;;;;18.78;96.79;100429.69;10374629;28;20097;-71
2022/09/29 20:47:17;;;;;;;17.90;7.50;;;;;;;18.60;97.35;100413.47;10374699;28;20471;-72
2022/09/29 20:52:18;;;;;;;12.52;6.80;;;;;;;18.69;97.57;100431.81;10374154;28;20062;-72
2022/09/29 20:57:19;;;;;;;21.42;7.45;;;;;;;18.69;98.50;100437.19;10374836;28;20045;-72
2022/09/29 21:02:20;;;;;;;9.98;7.07;;;;;;;18.72;98.61;100438.63;10375009;28;20494;-72
2022/09/29 21:07:35;;;;;;;11.82;7.63;;;;;;;18.71;98.74;100437.00;10373943;28;20392;-72
2022/09/29 21:12:36;;;;;;;17.63;8.35;;;;;;;18.31;99.50;100377.25;10373888;28;20053;-72
2022/09/29 21:17:37;;;;;;;14.95;8.13;;;;;;;18.66;100.00;100440.31;10373375;28;20045;-72
2022/09/29 21:22:38;;;;;;;22.23;9.95;;;;;;;18.27;100.00;100382.25;10373469;28;20049;-72
2022/09/29 21:27:39;;;;;;;69.65;25.23;;;;;;;18.59;99.89;100434.19;10374196;28;20042;-72
2022/09/29 21:32:40;;;;;;;93.40;31.88;;;;;;;18.60;99.52;100430.44;10373328;28;20049;-72
2022/09/29 21:37:41;;;;;;;80.85;24.98;;;;;;;18.46;100.00;100402.00;10372991;28;20124;-72
2022/09/29 21:42:42;;;;;;;52.63;20.90;;;;;;;18.63;100.00;100424.63;10374023;28;20137;-72
2022/09/29 21:53:02;;;;;;;31.88;17.58;;;;;;;18.08;100.00;100334.84;10373395;28;20072;-72
2022/09/29 21:58:02;;;;;;;40.80;19.88;;;;;;;18.57;100.00;100419.28;10372774;28;20129;-72
2022/09/29 22:03:03;;;;;;;21.58;13.02;;;;;;;18.24;100.00;100378.13;10372466;28;20490;-72
2022/09/29 22:08:04;;;;;;;20.95;10.77;;;;;;;18.42;100.00;100414.22;10372511;28;20056;-72
2022/09/29 22:13:05;;;;;;;39.15;16.15;;;;;;;18.25;100.00;100401.31;10372175;28;20405;-72
2022/09/29 22:18:06;;;;;;;23.55;11.55;;;;;;;18.38;100.00;100446.13;10373326;28;20049;-72
2022/09/29 22:23:07;;;;;;;18.00;9.70;;;;;;;17.89;100.00;100369.69;10378073;28;20510;-72
2022/09/29 22:28:08;;;;;;;18.92;12.15;;;;;;;18.28;100.00;100434.16;10380970;28;20069;-72
2022/09/29 22:33:09;;;;;;;19.80;12.18;;;;;;;17.79;100.00;100354.03;10380952;28;20136;-72
2022/09/29 22:38:11;;;;;;;19.48;11.38;;;;;;;18.19;100.00;100421.00;10379476;28;20137;-72
2022/09/29 22:43:12;;;;;;;206.20;91.55;;;;;;;18.30;100.00;100457.13;10379780;28;20080;-72
2022/09/29 22:48:13;;;;;;;34.55;17.52;;;;;;;18.29;100.00;100458.16;10379061;28;20516;-72
2022/09/29 22:53:15;;;;;;;48.42;26.15;;;;;;;18.18;100.00;100448.09;10380329;28;20064;-72
2022/09/29 22:58:16;;;;;;;37.63;20.17;;;;;;;18.17;100.00;100470.66;10379520;28;20058;-72
2022/09/29 23:03:16;;;;;;;22.90;12.65;;;;;;;18.21;100.00;100466.47;10390427;28;20038;-72
2022/09/29 23:08:17;;;;;;;24.55;12.68;;;;;;;17.94;100.00;100422.78;10378894;28;20075;-72
2022/09/29 23:13:20;;;;;;;16.42;9.35;;;;;;;17.44;100.00;100339.28;10378908;28;20402;-72
2022/09/29 23:18:21;;;;;;;14.82;9.55;;;;;;;18.21;100.00;100463.78;10379536;28;20038;-72
2022/09/29 23:23:22;;;;;;;21.35;11.13;;;;;;;18.19;100.00;100472.09;10393605;28;20048;-72
2022/09/29 23:28:23;;;;;;;15.35;9.13;;;;;;;18.19;100.00;100465.91;10419738;28;20053;-72